PWSweather.com
Personal Weather Stations
Station Observations
KMNGREYC2
Grey Cloud Island, Grey Cloud Island, MN 55071

Grey Cloud IslandGrey Cloud Island, MN 55071

Lat: 44.799333, Lon: -92.987851

Elevation: 700

Station Type: Davis VP2

www.jagielski.com/weather/conditions.htm

High Low Average
Temperature -7.1°F-21.7°C -26.6°F-32.6°C -20.4°F-29.1°C
Dew Point -17.7°F-27.6°C -33.1°F-36.2°C -27.8°F-33.2°C
Winds 9.0 mph 14.5 kmh Calm Calm 3.0 mph W4.8 kmh W
Wind Gusts 14.0 mph22.5 kmh 2.0 mph3.2 kmh 7.0 mph11.3 kmh
Humidity 74% 57% 68%
Pressure 30.39 in1029.1 mb 30.25 in1024.4 mb -
Precipitation 0.00 in0.0 mm - -
Hour Temp Dew Point Humidity Winds Wind Gusts Pressure Precip Precip Rate Daily Precip Total
12:00 AM -23.6°F-30.9°C -30.7°F-34.8°C 68% 1.0 mph WNW1.6 kmh WNW 13.0 mph20.9 kmh 30.25 in1024.4 mb 0.00 in0.0 mm 0.00 in0.0 mm 0.00 in0.0 mm
12:15 AM -23.9°F-31.1°C -31.0°F-35.0°C 68% 5.0 mph W8.0 kmh W 12.0 mph19.3 kmh 30.25 in1024.4 mb 0.00 in0.0 mm 0.00 in0.0 mm 0.00 in0.0 mm
12:30 AM -24.0°F-31.1°C -31.1°F-35.1°C 68% 3.0 mph WNW4.8 kmh WNW 12.0 mph19.3 kmh 30.25 in1024.4 mb 0.00 in0.0 mm 0.00 in0.0 mm 0.00 in0.0 mm
12:45 AM -24.2°F-31.2°C -31.0°F-35.0°C 69% 3.0 mph WNW4.8 kmh WNW 11.0 mph17.7 kmh 30.26 in1024.7 mb 0.00 in0.0 mm 0.00 in0.0 mm 0.00 in0.0 mm
01:00 AM -24.3°F-31.3°C -31.1°F-35.1°C 69% 4.0 mph NW6.4 kmh NW 11.0 mph17.7 kmh 30.26 in1024.7 mb 0.00 in0.0 mm 0.00 in0.0 mm 0.00 in0.0 mm
01:15 AM -24.4°F-31.3°C -31.2°F-35.1°C 69% 4.0 mph WNW6.4 kmh WNW 11.0 mph17.7 kmh 30.26 in1024.7 mb 0.00 in0.0 mm 0.00 in0.0 mm 0.00 in0.0 mm
01:30 AM -24.4°F-31.3°C -31.2°F-35.1°C 69% 3.0 mph WNW4.8 kmh WNW 11.0 mph17.7 kmh 30.27 in1025.1 mb 0.00 in0.0 mm 0.00 in0.0 mm 0.00 in0.0 mm
01:45 AM -24.4°F-31.3°C -31.2°F-35.1°C 69% 4.0 mph WNW6.4 kmh WNW 14.0 mph22.5 kmh 30.27 in1025.1 mb 0.00 in0.0 mm 0.00 in0.0 mm 0.00 in0.0 mm
02:00 AM -24.4°F-31.3°C -31.0°F-35.0°C 70% 3.0 mph WNW4.8 kmh WNW 14.0 mph22.5 kmh 30.27 in1025.1 mb 0.00 in0.0 mm 0.00 in0.0 mm 0.00 in0.0 mm
02:15 AM -24.5°F-31.4°C -31.1°F-35.1°C 70% 4.0 mph NW6.4 kmh NW 9.0 mph14.5 kmh 30.27 in1025.1 mb 0.00 in0.0 mm 0.00 in0.0 mm 0.00 in0.0 mm
02:30 AM -24.6°F-31.4°C -31.2°F-35.1°C 70% 7.0 mph WNW11.3 kmh WNW 9.0 mph14.5 kmh 30.27 in1025.1 mb 0.00 in0.0 mm 0.00 in0.0 mm 0.00 in0.0 mm
02:45 AM -24.8°F-31.6°C -31.4°F-35.2°C 70% 6.0 mph NW9.7 kmh NW 8.0 mph12.9 kmh 30.27 in1025.1 mb 0.00 in0.0 mm 0.00 in0.0 mm 0.00 in0.0 mm
03:00 AM -24.9°F-31.6°C -31.5°F-35.3°C 70% 5.0 mph NW8.0 kmh NW 9.0 mph14.5 kmh 30.27 in1025.1 mb 0.00 in0.0 mm 0.00 in0.0 mm 0.00 in0.0 mm
03:15 AM -25.1°F-31.7°C -31.7°F-35.4°C 70% 2.0 mph WNW3.2 kmh WNW 9.0 mph14.5 kmh 30.28 in1025.4 mb 0.00 in0.0 mm 0.00 in0.0 mm 0.00 in0.0 mm
03:30 AM -25.1°F-31.7°C -31.7°F-35.4°C 70% 5.0 mph WNW8.0 kmh WNW 9.0 mph14.5 kmh 30.29 in1025.7 mb 0.00 in0.0 mm 0.00 in0.0 mm 0.00 in0.0 mm
03:45 AM -25.3°F-31.8°C -31.9°F-35.5°C 70% 2.0 mph WNW3.2 kmh WNW 10.0 mph16.1 kmh 30.29 in1025.7 mb 0.00 in0.0 mm 0.00 in0.0 mm 0.00 in0.0 mm
04:00 AM -25.3°F-31.8°C -31.9°F-35.5°C 70% 2.0 mph NW3.2 kmh NW 10.0 mph16.1 kmh 30.29 in1025.7 mb 0.00 in0.0 mm 0.00 in0.0 mm 0.00 in0.0 mm
04:15 AM -25.4°F-31.9°C -31.9°F-35.5°C 70% 3.0 mph W4.8 kmh W 11.0 mph17.7 kmh 30.29 in1025.7 mb 0.00 in0.0 mm 0.00 in0.0 mm 0.00 in0.0 mm
04:30 AM -25.4°F-31.9°C -31.9°F-35.5°C 70% 4.0 mph N6.4 kmh N 11.0 mph17.7 kmh 30.29 in1025.7 mb 0.00 in0.0 mm 0.00 in0.0 mm 0.00 in0.0 mm
04:45 AM -25.5°F-31.9°C -32.0°F-35.6°C 70% 4.0 mph WNW6.4 kmh WNW 8.0 mph12.9 kmh 30.29 in1025.7 mb 0.00 in0.0 mm 0.00 in0.0 mm 0.00 in0.0 mm
05:00 AM -25.5°F-31.9°C -32.0°F-35.6°C 70% 1.0 mph WNW1.6 kmh WNW 8.0 mph12.9 kmh 30.29 in1025.7 mb 0.00 in0.0 mm 0.00 in0.0 mm 0.00 in0.0 mm
05:15 AM -25.7°F-32.1°C -32.2°F-35.7°C 70% 3.0 mph WNW4.8 kmh WNW 8.0 mph12.9 kmh 30.29 in1025.7 mb 0.00 in0.0 mm 0.00 in0.0 mm 0.00 in0.0 mm
05:30 AM -25.8°F-32.1°C -32.3°F-35.7°C 70% 2.0 mph WNW3.2 kmh WNW 8.0 mph12.9 kmh 30.29 in1025.7 mb 0.00 in0.0 mm 0.00 in0.0 mm 0.00 in0.0 mm
05:45 AM -25.9°F-32.2°C -32.4°F-35.8°C 70% 2.0 mph WNW3.2 kmh WNW 4.0 mph6.4 kmh 30.30 in1026.1 mb 0.00 in0.0 mm 0.00 in0.0 mm 0.00 in0.0 mm
06:00 AM -26.1°F-32.3°C -32.6°F-35.9°C 70% 1.0 mph WNW1.6 kmh WNW 8.0 mph12.9 kmh 30.31 in1026.4 mb 0.00 in0.0 mm 0.00 in0.0 mm 0.00 in0.0 mm
06:15 AM -26.1°F-32.3°C -32.6°F-35.9°C 70% 2.0 mph WNW3.2 kmh WNW 8.0 mph12.9 kmh 30.31 in1026.4 mb 0.00 in0.0 mm 0.00 in0.0 mm 0.00 in0.0 mm
06:30 AM -26.2°F-32.3°C -32.7°F-35.9°C 70% Calm Calm 8.0 mph12.9 kmh 30.31 in1026.4 mb 0.00 in0.0 mm 0.00 in0.0 mm 0.00 in0.0 mm
06:45 AM -26.4°F-32.4°C -32.9°F-36.1°C 70% 4.0 mph NW6.4 kmh NW 7.0 mph11.3 kmh 30.32 in1026.8 mb 0.00 in0.0 mm 0.00 in0.0 mm 0.00 in0.0 mm
07:00 AM -26.4°F-32.4°C -32.9°F-36.1°C 70% 1.0 mph WNW1.6 kmh WNW 7.0 mph11.3 kmh 30.32 in1026.8 mb 0.00 in0.0 mm 0.00 in0.0 mm 0.00 in0.0 mm
07:15 AM -26.5°F-32.5°C -33.0°F-36.1°C 70% 2.0 mph WNW3.2 kmh WNW 5.0 mph8.0 kmh 30.33 in1027.1 mb 0.00 in0.0 mm 0.00 in0.0 mm 0.00 in0.0 mm
07:30 AM -26.6°F-32.6°C -33.1°F-36.2°C 70% 3.0 mph WNW4.8 kmh WNW 6.0 mph9.7 kmh 30.33 in1027.1 mb 0.00 in0.0 mm 0.00 in0.0 mm 0.00 in0.0 mm
07:45 AM -26.6°F-32.6°C -32.9°F-36.1°C 71% 1.0 mph WNW1.6 kmh WNW 7.0 mph11.3 kmh 30.33 in1027.1 mb 0.00 in0.0 mm 0.00 in0.0 mm 0.00 in0.0 mm
08:00 AM -26.6°F-32.6°C -32.9°F-36.1°C 71% 3.0 mph W4.8 kmh W 8.0 mph12.9 kmh 30.33 in1027.1 mb 0.00 in0.0 mm 0.00 in0.0 mm 0.00 in0.0 mm
08:15 AM -26.4°F-32.4°C -32.7°F-35.9°C 71% 1.0 mph NW1.6 kmh NW 7.0 mph11.3 kmh 30.33 in1027.1 mb 0.00 in0.0 mm 0.00 in0.0 mm 0.00 in0.0 mm
08:30 AM -26.2°F-32.3°C -32.2°F-35.7°C 72% 7.0 mph W11.3 kmh W 8.0 mph12.9 kmh 30.34 in1027.4 mb 0.00 in0.0 mm 0.00 in0.0 mm 0.00 in0.0 mm
08:45 AM -25.7°F-32.1°C -31.7°F-35.4°C 72% 6.0 mph WNW9.7 kmh WNW 10.0 mph16.1 kmh 30.34 in1027.4 mb 0.00 in0.0 mm 0.00 in0.0 mm 0.00 in0.0 mm
09:00 AM -25.2°F-31.8°C -31.2°F-35.1°C 72% 3.0 mph WNW4.8 kmh WNW 10.0 mph16.1 kmh 30.35 in1027.8 mb 0.00 in0.0 mm 0.00 in0.0 mm 0.00 in0.0 mm
09:15 AM -24.6°F-31.4°C -30.7°F-34.8°C 72% 2.0 mph N3.2 kmh N 7.0 mph11.3 kmh 30.35 in1027.8 mb 0.00 in0.0 mm 0.00 in0.0 mm 0.00 in0.0 mm
09:30 AM -24.0°F-31.1°C -30.1°F-34.5°C 72% 3.0 mph W4.8 kmh W 9.0 mph14.5 kmh 30.35 in1027.8 mb 0.00 in0.0 mm 0.00 in0.0 mm 0.00 in0.0 mm
09:45 AM -23.4°F-30.8°C -29.8°F-34.3°C 71% 3.0 mph W4.8 kmh W 3.0 mph4.8 kmh 30.36 in1028.1 mb 0.00 in0.0 mm 0.00 in0.0 mm 0.00 in0.0 mm
10:00 AM -22.8°F-30.4°C -29.2°F-34.0°C 71% 5.0 mph W8.0 kmh W 10.0 mph16.1 kmh 30.35 in1027.8 mb 0.00 in0.0 mm 0.00 in0.0 mm 0.00 in0.0 mm
10:15 AM -21.6°F-29.8°C -28.0°F-33.3°C 71% 8.0 mph NW12.9 kmh NW 10.0 mph16.1 kmh 30.36 in1028.1 mb 0.00 in0.0 mm 0.00 in0.0 mm 0.00 in0.0 mm
10:30 AM -20.4°F-29.1°C -27.1°F-32.8°C 70% 5.0 mph NW8.0 kmh NW 10.0 mph16.1 kmh 30.37 in1028.4 mb 0.00 in0.0 mm 0.00 in0.0 mm 0.00 in0.0 mm
10:45 AM -18.9°F-28.3°C -25.9°F-32.2°C 69% 2.0 mph SW3.2 kmh SW 9.0 mph14.5 kmh 30.37 in1028.4 mb 0.00 in0.0 mm 0.00 in0.0 mm 0.00 in0.0 mm
11:00 AM -17.5°F-27.5°C -25.1°F-31.7°C 67% 3.0 mph WSW4.8 kmh WSW 9.0 mph14.5 kmh 30.38 in1028.8 mb 0.00 in0.0 mm 0.00 in0.0 mm 0.00 in0.0 mm
11:15 AM -17.0°F-27.2°C -25.2°F-31.8°C 65% 2.0 mph WSW3.2 kmh WSW 9.0 mph14.5 kmh 30.38 in1028.8 mb 0.00 in0.0 mm 0.00 in0.0 mm 0.00 in0.0 mm
11:30 AM -16.3°F-26.8°C -24.6°F-31.4°C 65% 9.0 mph SW14.5 kmh SW 9.0 mph14.5 kmh 30.38 in1028.8 mb 0.00 in0.0 mm 0.00 in0.0 mm 0.00 in0.0 mm
11:45 AM -15.7°F-26.5°C -24.0°F-31.1°C 65% 1.0 mph W1.6 kmh W 9.0 mph14.5 kmh 30.37 in1028.4 mb 0.00 in0.0 mm 0.00 in0.0 mm 0.00 in0.0 mm
12:00 PM -15.2°F-26.2°C -23.8°F-31.0°C 64% 1.0 mph W1.6 kmh W 9.0 mph14.5 kmh 30.37 in1028.4 mb 0.00 in0.0 mm 0.00 in0.0 mm 0.00 in0.0 mm
12:15 PM -14.5°F-25.8°C -23.1°F-30.6°C 64% 3.0 mph W4.8 kmh W 8.0 mph12.9 kmh 30.37 in1028.4 mb 0.00 in0.0 mm 0.00 in0.0 mm 0.00 in0.0 mm
12:30 PM -14.3°F-25.7°C -22.9°F-30.5°C 64% 4.0 mph WSW6.4 kmh WSW 8.0 mph12.9 kmh 30.36 in1028.1 mb 0.00 in0.0 mm 0.00 in0.0 mm 0.00 in0.0 mm
12:45 PM -14.2°F-25.7°C -22.8°F-30.4°C 64% 1.0 mph W1.6 kmh W 8.0 mph12.9 kmh 30.36 in1028.1 mb 0.00 in0.0 mm 0.00 in0.0 mm 0.00 in0.0 mm
01:00 PM -13.3°F-25.2°C -22.0°F-30.0°C 64% 5.0 mph NW8.0 kmh NW 9.0 mph14.5 kmh 30.35 in1027.8 mb 0.00 in0.0 mm 0.00 in0.0 mm 0.00 in0.0 mm
01:15 PM -12.4°F-24.7°C -21.1°F-29.5°C 64% 2.0 mph WNW3.2 kmh WNW 7.0 mph11.3 kmh 30.35 in1027.8 mb 0.00 in0.0 mm 0.00 in0.0 mm 0.00 in0.0 mm
01:30 PM -11.3°F-24.1°C -20.1°F-28.9°C 64% 6.0 mph WSW9.7 kmh WSW 8.0 mph12.9 kmh 30.35 in1027.8 mb 0.00 in0.0 mm 0.00 in0.0 mm 0.00 in0.0 mm
01:45 PM -10.4°F-23.6°C -19.8°F-28.8°C 62% 4.0 mph WNW6.4 kmh WNW 10.0 mph16.1 kmh 30.35 in1027.8 mb 0.00 in0.0 mm 0.00 in0.0 mm 0.00 in0.0 mm
02:00 PM -9.4°F-23.0°C -18.9°F-28.3°C 62% 6.0 mph SW9.7 kmh SW 10.0 mph16.1 kmh 30.35 in1027.8 mb 0.00 in0.0 mm 0.00 in0.0 mm 0.00 in0.0 mm
02:15 PM -8.3°F-22.4°C -18.5°F-28.1°C 60% 2.0 mph SW3.2 kmh SW 10.0 mph16.1 kmh 30.35 in1027.8 mb 0.00 in0.0 mm 0.00 in0.0 mm 0.00 in0.0 mm
02:30 PM -7.5°F-21.9°C -18.4°F-28.0°C 58% 3.0 mph SW4.8 kmh SW 10.0 mph16.1 kmh 30.34 in1027.4 mb 0.00 in0.0 mm 0.00 in0.0 mm 0.00 in0.0 mm
02:45 PM -7.2°F-21.8°C -17.7°F-27.6°C 59% Calm Calm 8.0 mph12.9 kmh 30.34 in1027.4 mb 0.00 in0.0 mm 0.00 in0.0 mm 0.00 in0.0 mm
03:00 PM -7.1°F-21.7°C -18.0°F-27.8°C 58% Calm Calm 10.0 mph16.1 kmh 30.34 in1027.4 mb 0.00 in0.0 mm 0.00 in0.0 mm 0.00 in0.0 mm
03:15 PM -7.5°F-21.9°C -18.4°F-28.0°C 58% 3.0 mph SSW4.8 kmh SSW 10.0 mph16.1 kmh 30.34 in1027.4 mb 0.00 in0.0 mm 0.00 in0.0 mm 0.00 in0.0 mm
03:30 PM -8.1°F-22.3°C -18.9°F-28.3°C 58% 2.0 mph W3.2 kmh W 10.0 mph16.1 kmh 30.34 in1027.4 mb 0.00 in0.0 mm 0.00 in0.0 mm 0.00 in0.0 mm
03:45 PM -9.1°F-22.8°C -20.2°F-29.0°C 57% 3.0 mph SW4.8 kmh SW 9.0 mph14.5 kmh 30.34 in1027.4 mb 0.00 in0.0 mm 0.00 in0.0 mm 0.00 in0.0 mm
04:00 PM -10.4°F-23.6°C -20.8°F-29.3°C 59% 3.0 mph W4.8 kmh W 9.0 mph14.5 kmh 30.35 in1027.8 mb 0.00 in0.0 mm 0.00 in0.0 mm 0.00 in0.0 mm
04:15 PM -11.1°F-23.9°C -21.1°F-29.5°C 60% 2.0 mph WSW3.2 kmh WSW 10.0 mph16.1 kmh 30.35 in1027.8 mb 0.00 in0.0 mm 0.00 in0.0 mm 0.00 in0.0 mm
04:30 PM -12.1°F-24.5°C -21.7°F-29.8°C 61% 5.0 mph W8.0 kmh W 10.0 mph16.1 kmh 30.35 in1027.8 mb 0.00 in0.0 mm 0.00 in0.0 mm 0.00 in0.0 mm
04:45 PM -12.7°F-24.8°C -22.3°F-30.2°C 61% 2.0 mph SW3.2 kmh SW 7.0 mph11.3 kmh 30.35 in1027.8 mb 0.00 in0.0 mm 0.00 in0.0 mm 0.00 in0.0 mm
05:00 PM -13.4°F-25.2°C -22.7°F-30.4°C 62% 3.0 mph WSW4.8 kmh WSW 9.0 mph14.5 kmh 30.35 in1027.8 mb 0.00 in0.0 mm 0.00 in0.0 mm 0.00 in0.0 mm
05:15 PM -13.9°F-25.5°C -22.9°F-30.5°C 63% 5.0 mph WNW8.0 kmh WNW 7.0 mph11.3 kmh 30.35 in1027.8 mb 0.00 in0.0 mm 0.00 in0.0 mm 0.00 in0.0 mm
05:30 PM -14.5°F-25.8°C -23.4°F-30.8°C 63% 1.0 mph W1.6 kmh W 7.0 mph11.3 kmh 30.35 in1027.8 mb 0.00 in0.0 mm 0.00 in0.0 mm 0.00 in0.0 mm
05:45 PM -15.0°F-26.1°C -23.6°F-30.9°C 64% 1.0 mph WSW1.6 kmh WSW 4.0 mph6.4 kmh 30.35 in1027.8 mb 0.00 in0.0 mm 0.00 in0.0 mm 0.00 in0.0 mm
06:00 PM -15.6°F-26.4°C -23.9°F-31.1°C 65% 1.0 mph WSW1.6 kmh WSW 5.0 mph8.0 kmh 30.35 in1027.8 mb 0.00 in0.0 mm 0.00 in0.0 mm 0.00 in0.0 mm
06:15 PM -16.1°F-26.7°C -24.4°F-31.3°C 65% 1.0 mph WSW1.6 kmh WSW 2.0 mph3.2 kmh 30.35 in1027.8 mb 0.00 in0.0 mm 0.00 in0.0 mm 0.00 in0.0 mm
06:30 PM -16.9°F-27.2°C -25.4°F-31.9°C 64% Calm Calm 3.0 mph4.8 kmh 30.37 in1028.4 mb 0.00 in0.0 mm 0.00 in0.0 mm 0.00 in0.0 mm
06:45 PM -17.6°F-27.6°C -25.8°F-32.1°C 65% Calm Calm 3.0 mph4.8 kmh 30.37 in1028.4 mb 0.00 in0.0 mm 0.00 in0.0 mm 0.00 in0.0 mm
07:00 PM -18.3°F-27.9°C -26.5°F-32.5°C 65% 2.0 mph WSW3.2 kmh WSW 4.0 mph6.4 kmh 30.37 in1028.4 mb 0.00 in0.0 mm 0.00 in0.0 mm 0.00 in0.0 mm
07:15 PM -19.0°F-28.3°C -26.9°F-32.7°C 66% 2.0 mph WSW3.2 kmh WSW 3.0 mph4.8 kmh 30.37 in1028.4 mb 0.00 in0.0 mm 0.00 in0.0 mm 0.00 in0.0 mm
07:30 PM -19.5°F-28.6°C -27.1°F-32.8°C 67% 1.0 mph WSW1.6 kmh WSW 4.0 mph6.4 kmh 30.37 in1028.4 mb 0.00 in0.0 mm 0.00 in0.0 mm 0.00 in0.0 mm
07:45 PM -19.9°F-28.8°C -27.2°F-32.9°C 68% 2.0 mph WSW3.2 kmh WSW 4.0 mph6.4 kmh 30.37 in1028.4 mb 0.00 in0.0 mm 0.00 in0.0 mm 0.00 in0.0 mm
08:00 PM -20.3°F-29.1°C -27.3°F-32.9°C 69% 1.0 mph WSW1.6 kmh WSW 5.0 mph8.0 kmh 30.38 in1028.8 mb 0.00 in0.0 mm 0.00 in0.0 mm 0.00 in0.0 mm
08:15 PM -20.7°F-29.3°C -27.7°F-33.2°C 69% 1.0 mph WSW1.6 kmh WSW 4.0 mph6.4 kmh 30.38 in1028.8 mb 0.00 in0.0 mm 0.00 in0.0 mm 0.00 in0.0 mm
08:30 PM -21.0°F-29.4°C -27.7°F-33.2°C 70% 1.0 mph WSW1.6 kmh WSW 4.0 mph6.4 kmh 30.38 in1028.8 mb 0.00 in0.0 mm 0.00 in0.0 mm 0.00 in0.0 mm
08:45 PM -21.4°F-29.7°C -28.1°F-33.4°C 70% Calm Calm 2.0 mph3.2 kmh 30.39 in1029.1 mb 0.00 in0.0 mm 0.00 in0.0 mm 0.00 in0.0 mm
09:00 PM -22.0°F-30.0°C -28.7°F-33.7°C 70% Calm Calm 2.0 mph3.2 kmh 30.39 in1029.1 mb 0.00 in0.0 mm 0.00 in0.0 mm 0.00 in0.0 mm
09:15 PM -22.7°F-30.4°C -29.3°F-34.1°C 70% Calm Calm 2.0 mph3.2 kmh 30.39 in1029.1 mb 0.00 in0.0 mm 0.00 in0.0 mm 0.00 in0.0 mm
09:30 PM -23.5°F-30.8°C -30.1°F-34.5°C 70% Calm Calm 2.0 mph3.2 kmh 30.38 in1028.8 mb 0.00 in0.0 mm 0.00 in0.0 mm 0.00 in0.0 mm
09:45 PM -24.2°F-31.2°C -30.8°F-34.9°C 70% Calm Calm 2.0 mph3.2 kmh 30.38 in1028.8 mb 0.00 in0.0 mm 0.00 in0.0 mm 0.00 in0.0 mm
10:00 PM -24.8°F-31.6°C -31.4°F-35.2°C 70% 1.0 mph WSW1.6 kmh WSW 2.0 mph3.2 kmh 30.38 in1028.8 mb 0.00 in0.0 mm 0.00 in0.0 mm 0.00 in0.0 mm
10:15 PM -25.3°F-31.8°C -31.6°F-35.3°C 71% 1.0 mph WSW1.6 kmh WSW 2.0 mph3.2 kmh 30.38 in1028.8 mb 0.00 in0.0 mm 0.00 in0.0 mm 0.00 in0.0 mm
10:30 PM -25.6°F-32.0°C -31.6°F-35.3°C 72% 1.0 mph WSW1.6 kmh WSW 4.0 mph6.4 kmh 30.38 in1028.8 mb 0.00 in0.0 mm 0.00 in0.0 mm 0.00 in0.0 mm
10:45 PM -25.6°F-32.0°C -31.4°F-35.2°C 73% 1.0 mph WSW1.6 kmh WSW 3.0 mph4.8 kmh 30.38 in1028.8 mb 0.00 in0.0 mm 0.00 in0.0 mm 0.00 in0.0 mm
11:00 PM -25.5°F-31.9°C -31.0°F-35.0°C 74% 1.0 mph WSW1.6 kmh WSW 3.0 mph4.8 kmh 30.38 in1028.8 mb 0.00 in0.0 mm 0.00 in0.0 mm 0.00 in0.0 mm
11:15 PM -25.5°F-31.9°C -31.0°F-35.0°C 74% 1.0 mph WSW1.6 kmh WSW 3.0 mph4.8 kmh 30.39 in1029.1 mb 0.00 in0.0 mm 0.00 in0.0 mm 0.00 in0.0 mm
11:30 PM -25.6°F-32.0°C -31.1°F-35.1°C 74% 2.0 mph WSW3.2 kmh WSW 3.0 mph4.8 kmh 30.39 in1029.1 mb 0.00 in0.0 mm 0.00 in0.0 mm 0.00 in0.0 mm
11:45 PM -25.8°F-32.1°C -31.3°F-35.2°C 74% 1.0 mph WSW1.6 kmh WSW 3.0 mph4.8 kmh 30.39 in1029.1 mb 0.00 in0.0 mm 0.00 in0.0 mm 0.00 in0.0 mm